Main page
METAR-TAF:

METAR-TAF

Airports :

Isle of Man,

Isle of Man Airport

latitude: 54-05N, longitude: 004-38W, elevation: 17 m

Current weather observation

The report was made 44 minutes ago, at 19:20 UTC
Wind 9 kt from the Southwest
Temperature 10°C
Humidity 87%
Pressure 1030 hPa
Visibility 10 km or more
Few clouds at a height of 1500 ft
Broken clouds at a height of 4200 ft

METAR: EGNS 181920Z 22009KT 9999 FEW015 BKN042 10/08 Q1030 TEMPO BKN011

Time: 20:04 (20:04 UTC)

Forecast

The report was made 3 hours and 4 minutes ago, at 17:00 UTC
Forecast valid from 18 at 18 UTC to 18 at 22 UTC
Wind 7 kt from the Southwest
Visibility 10 km or more
Few clouds at a height of 1600 ft
Temporary
from 18 at 18 UTC to 18 at 22 UTC
Broken clouds at a height of 1100 ft

TAF: EGNS 181700Z 1818/1822 22007KT 9999 FEW016 TEMPO 1818/1822 BKN011

Weather observations and forecasts of more than 4000 airports (METAR and TAF reports).

The available stations are represented by yellow and red dots on the map.

Hover mouse over dot to see the name of the station.

Then click to see weather observations and forecasts.

To change the map : click on the green buttons with a black cross to zoom in, on the green button with a dash to zoom out, or on the green arrows for adjacent maps.


METAR-TAF: